createdAt,value
2017-12-12T00:00:43.693Z,1.85
2017-12-12T00:01:43.787Z,1.82
2017-12-12T00:02:43.618Z,1.89
2017-12-12T00:03:43.700Z,1.87
2017-12-12T00:04:43.560Z,1.90
2017-12-12T00:05:43.728Z,1.89
2017-12-12T00:06:43.487Z,1.90
2017-12-12T00:07:43.631Z,1.82
2017-12-12T00:08:43.419Z,1.83
2017-12-12T00:09:43.453Z,1.82
2017-12-12T00:10:43.349Z,1.91
2017-12-12T00:11:43.467Z,1.90
2017-12-12T00:12:43.281Z,1.83
2017-12-12T00:13:43.254Z,1.91
2017-12-12T00:14:43.214Z,1.91
2017-12-12T00:15:46.104Z,1.97
2017-12-12T00:16:43.150Z,1.89
2017-12-12T00:17:44.493Z,1.79
2017-12-12T00:18:43.074Z,1.83
2017-12-12T00:19:43.045Z,1.87
2017-12-12T00:20:43.016Z,1.90
2017-12-12T00:21:43.013Z,1.91
2017-12-12T00:22:42.942Z,1.78
2017-12-12T00:23:43.026Z,1.85
2017-12-12T00:24:42.878Z,1.87
2017-12-12T00:25:42.951Z,1.87
2017-12-12T00:26:42.804Z,1.90
2017-12-12T00:27:42.847Z,1.82
2017-12-12T00:28:42.737Z,1.85
2017-12-12T00:29:42.758Z,1.82
2017-12-12T00:30:42.666Z,1.68
2017-12-12T00:31:42.670Z,1.79
2017-12-12T00:32:42.601Z,1.82
2017-12-12T00:33:42.683Z,1.79
2017-12-12T00:34:42.532Z,1.80
2017-12-12T00:35:42.597Z,1.78
2017-12-12T00:36:42.462Z,1.80
2017-12-12T00:37:42.508Z,1.79
2017-12-12T00:38:42.390Z,1.76
2017-12-12T00:39:42.417Z,1.79
2017-12-12T00:40:42.328Z,1.82
2017-12-12T00:41:42.329Z,1.79
2017-12-12T00:42:42.260Z,1.76
2017-12-12T00:43:42.343Z,1.76
2017-12-12T00:44:42.190Z,1.68
2017-12-12T00:45:42.252Z,1.72
2017-12-12T00:46:42.119Z,1.79
2017-12-12T00:47:42.164Z,1.69
2017-12-12T00:48:42.051Z,1.78
2017-12-12T00:49:42.077Z,1.79
2017-12-12T00:50:41.981Z,1.76
2017-12-12T00:51:41.988Z,1.72
2017-12-12T00:52:41.915Z,1.69
2017-12-12T00:53:42.001Z,1.72
2017-12-12T00:54:41.874Z,1.83
2017-12-12T00:55:41.911Z,1.78
2017-12-12T00:56:41.784Z,1.87
2017-12-12T00:57:41.823Z,1.89
2017-12-12T00:58:41.708Z,1.82
2017-12-12T00:59:41.736Z,1.89
2017-12-12T01:00:41.645Z,1.85
2017-12-12T01:01:41.644Z,1.93
2017-12-12T01:02:41.574Z,1.87
2017-12-12T01:03:41.660Z,1.82
2017-12-12T01:04:41.515Z,1.93
2017-12-12T01:05:41.569Z,1.89
2017-12-12T01:06:41.437Z,1.91
2017-12-12T01:07:41.482Z,1.87
2017-12-12T01:08:41.366Z,1.83
2017-12-12T01:09:41.391Z,1.93
2017-12-12T01:10:41.305Z,1.89
2017-12-12T01:11:41.304Z,1.90
2017-12-12T01:12:41.244Z,1.89
2017-12-12T01:13:41.215Z,1.91
2017-12-12T01:14:41.164Z,1.97
2017-12-12T01:15:41.227Z,1.90
2017-12-12T01:16:41.095Z,1.97
2017-12-12T01:17:41.139Z,1.87
2017-12-12T01:18:41.029Z,1.87
2017-12-12T01:19:41.049Z,1.90
2017-12-12T01:20:40.964Z,1.90
2017-12-12T01:21:40.964Z,1.87
2017-12-12T01:22:40.890Z,1.89
2017-12-12T01:23:40.876Z,1.89
2017-12-12T01:24:40.827Z,1.87
2017-12-12T01:25:40.885Z,1.91
2017-12-12T01:26:40.758Z,1.90
2017-12-12T01:27:40.797Z,1.93
2017-12-12T01:28:40.721Z,1.94
2017-12-12T01:29:40.709Z,1.87
2017-12-12T01:30:40.622Z,1.90
2017-12-12T01:31:40.618Z,1.87
2017-12-12T01:32:40.551Z,1.85
2017-12-12T01:33:40.635Z,1.87
2017-12-12T01:34:40.484Z,1.97
2017-12-12T01:35:40.548Z,1.94
2017-12-12T01:36:40.420Z,1.87
2017-12-12T01:37:40.454Z,1.89
2017-12-12T01:38:40.351Z,1.91
2017-12-12T01:39:40.372Z,1.91
2017-12-12T01:40:40.285Z,1.91
2017-12-12T01:41:40.288Z,1.98
2017-12-12T01:42:40.217Z,1.97
2017-12-12T01:43:40.316Z,1.99
2017-12-12T01:44:40.147Z,2.04
2017-12-12T01:45:40.207Z,2.08
2017-12-12T01:46:40.077Z,2.09
2017-12-12T01:47:40.112Z,2.09
2017-12-12T01:48:40.011Z,2.16
2017-12-12T01:49:40.028Z,2.16
2017-12-12T01:50:39.941Z,2.10
2017-12-12T01:51:39.965Z,2.13
2017-12-12T01:52:39.870Z,2.13
2017-12-12T01:53:39.854Z,2.13
2017-12-12T01:54:39.810Z,2.17
2017-12-12T01:55:39.867Z,2.04
2017-12-12T01:56:39.735Z,2.15
2017-12-12T01:57:39.775Z,2.16
2017-12-12T01:58:39.670Z,2.19
2017-12-12T01:59:39.683Z,2.13
2017-12-12T02:00:39.604Z,2.15
2017-12-12T02:01:39.605Z,2.13
2017-12-12T02:02:39.530Z,2.19
2017-12-12T02:03:39.508Z,2.13
2017-12-12T02:04:39.471Z,2.17
2017-12-12T02:05:39.525Z,2.16
2017-12-12T02:06:39.396Z,2.16
2017-12-12T02:07:39.450Z,2.16
2017-12-12T02:08:39.329Z,2.15
2017-12-12T02:09:39.351Z,2.16
2017-12-12T02:10:39.261Z,2.19
2017-12-12T02:11:39.264Z,2.19
2017-12-12T02:12:39.185Z,2.22
2017-12-12T02:13:39.169Z,2.19
2017-12-12T02:14:39.125Z,2.16
2017-12-12T02:15:39.189Z,2.19
2017-12-12T02:16:39.050Z,2.19
2017-12-12T02:17:39.096Z,2.19
2017-12-12T02:18:38.987Z,2.22
2017-12-12T02:19:39.006Z,2.26
2017-12-12T02:20:38.920Z,2.23
2017-12-12T02:21:38.931Z,2.28
2017-12-12T02:22:38.847Z,2.15
2017-12-12T02:23:38.844Z,2.23
2017-12-12T02:24:38.785Z,2.19
2017-12-12T02:25:38.843Z,2.22
2017-12-12T02:26:38.710Z,2.23
2017-12-12T02:27:38.754Z,2.20
2017-12-12T02:28:38.645Z,2.33
2017-12-12T02:29:38.665Z,2.28
2017-12-12T02:30:38.576Z,2.30
2017-12-12T02:31:38.576Z,2.30
2017-12-12T02:32:38.506Z,2.31
2017-12-12T02:33:38.497Z,2.31
2017-12-12T02:34:38.440Z,2.28
2017-12-12T02:35:38.497Z,2.33
2017-12-12T02:36:38.372Z,2.34
2017-12-12T02:37:38.413Z,2.34
2017-12-12T02:38:38.313Z,2.35
2017-12-12T02:39:38.322Z,2.38
2017-12-12T02:40:38.267Z,2.33
2017-12-12T02:41:52.877Z,2.45
2017-12-12T02:42:38.174Z,2.30
2017-12-12T02:43:38.144Z,2.41
2017-12-12T02:44:38.102Z,2.44
2017-12-12T02:45:38.161Z,2.49
2017-12-12T02:46:38.032Z,2.31
2017-12-12T02:47:38.073Z,2.44
2017-12-12T02:48:37.966Z,2.44
2017-12-12T02:49:37.986Z,2.41
2017-12-12T02:50:37.899Z,2.40
2017-12-12T02:51:37.896Z,2.33
2017-12-12T02:52:37.834Z,2.52
2017-12-12T02:53:37.909Z,2.37
2017-12-12T02:54:37.765Z,2.51
2017-12-12T02:55:37.820Z,2.40
2017-12-12T02:56:37.695Z,2.45
2017-12-12T02:57:37.733Z,2.37
2017-12-12T02:58:37.627Z,2.44
2017-12-12T02:59:37.647Z,2.41
2017-12-12T03:00:37.560Z,2.45
2017-12-12T03:01:37.555Z,2.40
2017-12-12T03:02:37.489Z,2.41
2017-12-12T03:03:37.569Z,2.45
2017-12-12T03:04:37.424Z,2.37
2017-12-12T03:05:37.480Z,2.45
2017-12-12T03:06:37.357Z,2.40
2017-12-12T03:07:37.386Z,2.41
2017-12-12T03:08:37.289Z,2.44
2017-12-12T03:09:37.303Z,2.37
2017-12-12T03:10:37.219Z,2.38
2017-12-12T03:11:37.210Z,2.41
2017-12-12T03:12:37.157Z,2.37
2017-12-12T03:13:37.226Z,2.31
2017-12-12T03:14:37.085Z,2.27
2017-12-12T03:15:37.138Z,2.34
2017-12-12T03:16:37.016Z,2.34
2017-12-12T03:17:37.066Z,2.31
2017-12-12T03:18:36.949Z,2.30
2017-12-12T03:19:36.960Z,2.31
2017-12-12T03:20:36.882Z,2.31
2017-12-12T03:21:36.872Z,2.26
2017-12-12T03:22:36.817Z,2.28
2017-12-12T03:23:36.880Z,2.28
2017-12-12T03:24:36.747Z,2.30
2017-12-12T03:25:36.797Z,2.28
2017-12-12T03:26:36.705Z,2.28
2017-12-12T03:27:36.712Z,2.34
2017-12-12T03:28:36.611Z,2.28
2017-12-12T03:29:36.624Z,2.26
2017-12-12T03:30:36.543Z,2.31
2017-12-12T03:31:36.531Z,2.26
2017-12-12T03:32:36.476Z,2.31
2017-12-12T03:33:36.548Z,2.30
2017-12-12T03:34:36.407Z,2.31
2017-12-12T03:35:36.457Z,2.37
2017-12-12T03:36:36.338Z,2.34
2017-12-12T03:37:36.369Z,2.33
2017-12-12T03:38:36.272Z,2.33
2017-12-12T03:39:36.287Z,2.28
2017-12-12T03:40:36.202Z,2.31
2017-12-12T03:41:36.197Z,2.35
2017-12-12T03:42:36.135Z,2.40
2017-12-12T03:43:36.214Z,2.40
2017-12-12T03:44:36.073Z,2.38
2017-12-12T03:45:36.119Z,2.37
2017-12-12T03:46:35.999Z,2.37
2017-12-12T03:47:36.033Z,2.33
2017-12-12T03:48:35.932Z,2.37
2017-12-12T03:49:35.940Z,2.35
2017-12-12T03:50:35.865Z,2.35
2017-12-12T03:51:35.850Z,2.31
2017-12-12T03:52:35.794Z,2.30
2017-12-12T03:53:35.878Z,2.30
2017-12-12T03:54:35.721Z,2.33
2017-12-12T03:55:35.776Z,2.31
2017-12-12T03:56:35.654Z,2.31
2017-12-12T03:57:35.686Z,2.28
2017-12-12T03:58:35.585Z,2.27
2017-12-12T03:59:35.598Z,2.28
2017-12-12T04:00:35.526Z,2.27
2017-12-12T04:01:35.508Z,2.28
2017-12-12T04:02:35.451Z,2.34
2017-12-12T04:03:35.519Z,2.22
2017-12-12T04:04:35.396Z,2.23
2017-12-12T04:05:35.438Z,2.23
2017-12-12T04:06:35.319Z,2.20
2017-12-12T04:07:35.346Z,2.31
2017-12-12T04:08:35.248Z,2.22
2017-12-12T04:09:35.259Z,2.22
2017-12-12T04:10:35.182Z,2.19
2017-12-12T04:11:35.169Z,2.22
2017-12-12T04:12:35.115Z,2.22
2017-12-12T04:13:35.185Z,2.13
2017-12-12T04:14:35.046Z,2.19
2017-12-12T04:15:35.092Z,2.20
2017-12-12T04:16:34.978Z,2.22
2017-12-12T04:17:35.008Z,2.20
2017-12-12T04:18:34.913Z,2.26
2017-12-12T04:19:34.917Z,2.19
2017-12-12T04:20:34.841Z,2.20
2017-12-12T04:21:34.827Z,2.23
2017-12-12T04:22:34.779Z,2.23
2017-12-12T04:23:34.840Z,2.20
2017-12-12T04:24:34.710Z,2.23
2017-12-12T04:25:34.749Z,2.22
2017-12-12T04:26:34.640Z,2.20
2017-12-12T04:27:34.660Z,2.26
2017-12-12T04:28:34.574Z,2.23
2017-12-12T04:29:34.625Z,2.13
2017-12-12T04:30:34.501Z,2.19
2017-12-12T04:31:34.487Z,2.19
2017-12-12T04:32:34.432Z,2.19
2017-12-12T04:33:34.501Z,2.19
2017-12-12T04:34:34.361Z,2.22
2017-12-12T04:35:34.411Z,2.20
2017-12-12T04:36:34.296Z,2.20
2017-12-12T04:37:34.323Z,2.27
2017-12-12T04:38:34.230Z,2.22
2017-12-12T04:39:34.234Z,2.28
2017-12-12T04:40:34.166Z,2.19
2017-12-12T04:41:34.145Z,2.19
2017-12-12T04:42:34.093Z,2.23
2017-12-12T04:43:34.157Z,2.23
2017-12-12T04:44:34.027Z,2.30
2017-12-12T04:45:34.069Z,2.33
2017-12-12T04:46:33.957Z,2.30
2017-12-12T04:47:33.981Z,2.33
2017-12-12T04:48:33.888Z,2.30
2017-12-12T04:49:33.890Z,2.27
2017-12-12T04:50:33.826Z,2.23
2017-12-12T04:51:33.805Z,2.31
2017-12-12T04:52:33.754Z,2.34
2017-12-12T04:53:33.816Z,2.31
2017-12-12T04:54:33.687Z,2.30
2017-12-12T04:55:33.728Z,2.30
2017-12-12T04:56:33.618Z,2.31
2017-12-12T04:57:33.642Z,2.34
2017-12-12T04:58:33.547Z,2.34
2017-12-12T04:59:33.556Z,2.31
2017-12-12T05:00:33.487Z,2.37
2017-12-12T05:01:33.467Z,2.37
2017-12-12T05:02:33.410Z,2.37
2017-12-12T05:03:33.477Z,2.40
2017-12-12T05:04:33.344Z,2.38
2017-12-12T05:05:33.390Z,2.40
2017-12-12T05:06:33.275Z,2.38
2017-12-12T05:07:33.300Z,2.38
2017-12-12T05:08:33.205Z,2.40
2017-12-12T05:09:34.236Z,2.35
2017-12-12T05:10:33.148Z,2.51
2017-12-12T05:11:33.124Z,2.46
2017-12-12T05:12:33.068Z,2.30
2017-12-12T05:13:33.138Z,2.35
2017-12-12T05:14:33.002Z,2.41
2017-12-12T05:15:33.050Z,2.38
2017-12-12T05:16:32.937Z,2.38
2017-12-12T05:17:32.959Z,2.41
2017-12-12T05:18:32.874Z,2.41
2017-12-12T05:19:32.874Z,2.49
2017-12-12T05:20:32.800Z,2.48
2017-12-12T05:21:32.783Z,2.40
2017-12-12T05:22:32.726Z,2.48
2017-12-12T05:23:32.796Z,2.52
2017-12-12T05:24:32.660Z,2.38
2017-12-12T05:25:32.708Z,2.40
2017-12-12T05:26:32.595Z,2.37
2017-12-12T05:27:32.618Z,2.40
2017-12-12T05:28:32.528Z,2.38
2017-12-12T05:29:32.533Z,2.44
2017-12-12T05:30:32.456Z,2.45
2017-12-12T05:31:32.483Z,2.55
2017-12-12T05:32:32.389Z,2.37
2017-12-12T05:33:32.457Z,2.55
2017-12-12T05:34:32.319Z,2.59
2017-12-12T05:35:32.363Z,2.40
2017-12-12T05:36:32.256Z,2.48
2017-12-12T05:37:32.278Z,2.46
2017-12-12T05:38:32.186Z,2.49
2017-12-12T05:39:32.192Z,2.53
2017-12-12T05:40:32.116Z,2.51
2017-12-12T05:41:32.096Z,2.49
2017-12-12T05:42:32.051Z,2.53
2017-12-12T05:43:32.113Z,2.53
2017-12-12T05:44:31.978Z,2.53
2017-12-12T05:45:32.023Z,2.53
2017-12-12T05:46:31.916Z,2.58
2017-12-12T05:47:31.937Z,2.58
2017-12-12T05:48:31.846Z,2.56
2017-12-12T05:49:31.847Z,2.58
2017-12-12T05:50:31.778Z,2.56
2017-12-12T05:51:31.758Z,2.56
2017-12-12T05:52:31.712Z,2.63
2017-12-12T05:53:31.782Z,2.63
2017-12-12T05:54:31.638Z,2.59
2017-12-12T05:55:31.691Z,2.69
2017-12-12T05:56:31.574Z,2.63
2017-12-12T05:57:31.595Z,2.63
2017-12-12T05:58:31.508Z,2.61
2017-12-12T05:59:31.508Z,2.55
2017-12-12T06:00:31.437Z,2.66
2017-12-12T06:01:31.418Z,2.63
2017-12-12T06:02:31.367Z,2.59
2017-12-12T06:03:31.431Z,2.67
2017-12-12T06:04:31.305Z,2.59
2017-12-12T06:05:31.343Z,2.69
2017-12-12T06:06:31.234Z,2.63
2017-12-12T06:07:31.256Z,2.69
2017-12-12T06:08:31.163Z,2.71
2017-12-12T06:09:31.165Z,2.58
2017-12-12T06:10:31.101Z,2.58
2017-12-12T06:11:31.079Z,2.63
2017-12-12T06:12:31.035Z,2.63
2017-12-12T06:13:31.094Z,2.67
2017-12-12T06:14:30.969Z,2.70
2017-12-12T06:15:31.003Z,2.55
2017-12-12T06:16:30.901Z,2.63
2017-12-12T06:17:30.917Z,2.64
2017-12-12T06:18:30.824Z,2.63
2017-12-12T06:19:30.828Z,2.56
2017-12-12T06:20:30.761Z,2.63
2017-12-12T06:21:30.849Z,2.71
2017-12-12T06:22:30.700Z,2.66
2017-12-12T06:23:30.761Z,2.64
2017-12-12T06:24:30.625Z,2.63
2017-12-12T06:25:30.662Z,2.70
2017-12-12T06:26:30.553Z,2.67
2017-12-12T06:27:30.578Z,2.66
2017-12-12T06:28:30.494Z,2.66
2017-12-12T06:29:30.526Z,2.67
2017-12-12T06:30:30.423Z,2.69
2017-12-12T06:31:30.496Z,2.63
2017-12-12T06:32:30.353Z,2.66
2017-12-12T06:33:30.411Z,2.71
2017-12-12T06:34:30.284Z,2.73
2017-12-12T06:35:30.321Z,2.79
2017-12-12T06:36:30.215Z,2.82
2017-12-12T06:37:30.233Z,2.73
2017-12-12T06:38:30.149Z,2.76
2017-12-12T06:39:30.144Z,2.73
2017-12-12T06:40:30.082Z,2.73
2017-12-12T06:41:30.154Z,2.74
2017-12-12T06:42:30.011Z,2.67
2017-12-12T06:43:30.067Z,2.76
2017-12-12T06:44:29.989Z,2.82
2017-12-12T06:45:29.982Z,2.79
2017-12-12T06:46:29.882Z,2.73
2017-12-12T06:47:29.890Z,2.71
2017-12-12T06:48:29.808Z,2.71
2017-12-12T06:49:29.800Z,2.74
2017-12-12T06:50:29.741Z,2.71
2017-12-12T06:51:29.816Z,2.71
2017-12-12T06:52:29.676Z,2.74
2017-12-12T06:53:29.723Z,2.81
2017-12-12T06:54:29.609Z,2.70
2017-12-12T06:55:29.639Z,2.71
2017-12-12T06:56:29.539Z,2.71
2017-12-12T06:57:29.555Z,2.69
2017-12-12T06:58:29.475Z,2.77
2017-12-12T06:59:29.464Z,2.71
2017-12-12T07:00:29.409Z,2.74
2017-12-12T07:01:29.478Z,2.81
2017-12-12T07:02:29.339Z,2.73
2017-12-12T07:03:29.391Z,2.70
2017-12-12T07:04:29.273Z,2.70
2017-12-12T07:05:29.305Z,2.73
2017-12-12T07:06:29.209Z,2.82
2017-12-12T07:07:29.212Z,2.82
2017-12-12T07:08:29.144Z,2.87
2017-12-12T07:09:29.128Z,2.82
2017-12-12T07:10:29.072Z,2.79
2017-12-12T07:11:29.038Z,2.73
2017-12-12T07:12:29.149Z,2.73
2017-12-12T07:13:28.964Z,2.76
2017-12-12T07:14:29.058Z,2.84
2017-12-12T07:15:28.901Z,2.70
2017-12-12T07:16:28.872Z,2.71
2017-12-12T07:17:28.831Z,2.74
2017-12-12T07:18:28.878Z,2.81
2017-12-12T07:19:28.760Z,2.73
2017-12-12T07:20:28.895Z,2.79
2017-12-12T07:21:28.697Z,2.73
2017-12-12T07:22:28.805Z,2.73
2017-12-12T07:23:28.627Z,2.76
2017-12-12T07:24:28.717Z,2.79
2017-12-12T07:25:28.564Z,2.79
2017-12-12T07:26:28.627Z,2.84
2017-12-12T07:27:28.498Z,2.77
2017-12-12T07:28:28.641Z,2.82
2017-12-12T07:29:28.426Z,2.69
2017-12-12T07:30:28.553Z,2.73
2017-12-12T07:31:28.367Z,2.71
2017-12-12T07:32:28.464Z,2.71
2017-12-12T07:33:28.295Z,2.73
2017-12-12T07:34:28.376Z,2.76
2017-12-12T07:35:28.240Z,2.70
2017-12-12T07:36:28.291Z,2.76
2017-12-12T07:37:28.154Z,2.73
2017-12-12T07:38:28.300Z,2.71
2017-12-12T07:39:28.086Z,2.81
2017-12-12T07:40:28.215Z,2.76
2017-12-12T07:41:28.024Z,2.71
2017-12-12T07:42:28.122Z,2.74
2017-12-12T07:43:27.949Z,2.73
2017-12-12T07:44:28.044Z,2.76
2017-12-12T07:45:27.888Z,2.69
2017-12-12T07:46:27.944Z,2.73
2017-12-12T07:47:27.838Z,2.70
2017-12-12T07:48:27.958Z,2.73
2017-12-12T07:49:27.761Z,2.81
2017-12-12T07:50:27.868Z,2.73
2017-12-12T07:51:27.689Z,2.74
2017-12-12T07:52:27.794Z,2.76
2017-12-12T07:53:27.616Z,2.73
2017-12-12T07:54:27.699Z,2.76
2017-12-12T07:55:27.547Z,2.69
2017-12-12T07:56:27.629Z,2.77
2017-12-12T07:57:27.495Z,2.76
2017-12-12T07:58:27.528Z,2.71
2017-12-12T07:59:27.417Z,2.73
2017-12-12T08:00:27.509Z,2.74
2017-12-12T08:01:27.341Z,2.74
2017-12-12T08:02:27.445Z,2.76
2017-12-12T08:03:27.288Z,2.69
2017-12-12T08:04:27.350Z,2.71
2017-12-12T08:05:27.217Z,2.73
2017-12-12T08:06:27.365Z,2.74
2017-12-12T08:07:27.143Z,2.74
2017-12-12T08:08:27.281Z,2.79
2017-12-12T08:09:27.074Z,2.71
2017-12-12T08:10:27.184Z,2.82
2017-12-12T08:11:27.010Z,2.79
2017-12-12T08:12:27.201Z,2.73
2017-12-12T08:13:26.946Z,2.79
2017-12-12T08:14:27.046Z,2.77
2017-12-12T08:15:26.888Z,2.74
2017-12-12T08:16:27.025Z,2.70
2017-12-12T08:17:26.838Z,2.84
2017-12-12T08:18:26.937Z,2.73
2017-12-12T08:19:26.755Z,2.73
2017-12-12T08:20:26.847Z,2.66
2017-12-12T08:21:26.824Z,2.74
2017-12-12T08:22:26.864Z,2.74
2017-12-12T08:23:26.606Z,2.71
2017-12-12T08:24:26.794Z,2.74
2017-12-12T08:25:26.537Z,2.71
2017-12-12T08:26:26.684Z,2.70
2017-12-12T08:27:26.483Z,2.70
2017-12-12T08:28:26.591Z,2.70
2017-12-12T08:29:26.402Z,2.71
2017-12-12T08:30:26.506Z,2.77
2017-12-12T08:31:26.337Z,2.82
2017-12-12T08:32:26.414Z,2.82
2017-12-12T08:33:26.271Z,2.84
2017-12-12T08:34:26.327Z,2.81
2017-12-12T08:35:26.201Z,2.79
2017-12-12T08:36:26.237Z,2.89
2017-12-12T08:37:26.136Z,2.87
2017-12-12T08:38:26.148Z,2.89
2017-12-12T08:39:26.067Z,2.85
2017-12-12T08:40:26.075Z,2.87
2017-12-12T08:41:25.999Z,2.84
2017-12-12T08:42:25.971Z,2.77
2017-12-12T08:43:27.649Z,2.85
2017-12-12T08:44:25.895Z,2.84
2017-12-12T08:45:25.993Z,2.91
2017-12-12T08:46:25.827Z,2.85
2017-12-12T08:47:25.904Z,2.87
2017-12-12T08:48:25.763Z,2.85
2017-12-12T08:49:25.816Z,2.91
2017-12-12T08:50:25.701Z,2.87
2017-12-12T08:51:25.737Z,2.92
2017-12-12T08:52:25.628Z,2.84
2017-12-12T08:53:25.640Z,2.84
2017-12-12T08:54:25.557Z,2.84
2017-12-12T08:55:25.550Z,2.85
2017-12-12T08:56:25.495Z,2.91
2017-12-12T08:57:25.566Z,2.89
2017-12-12T08:58:25.422Z,2.92
2017-12-12T08:59:25.477Z,2.89
2017-12-12T09:00:25.363Z,2.84
2017-12-12T09:01:25.383Z,2.87
2017-12-12T09:02:25.286Z,2.88
2017-12-12T09:03:25.299Z,2.88
2017-12-12T09:04:25.228Z,2.84
2017-12-12T09:05:25.217Z,2.84
2017-12-12T09:06:25.160Z,2.74
2017-12-12T09:07:25.225Z,2.66
2017-12-12T09:08:25.090Z,2.59
2017-12-12T09:09:25.143Z,2.44
2017-12-12T09:10:25.023Z,2.34
2017-12-12T09:11:25.049Z,2.45
2017-12-12T09:12:24.954Z,2.37
2017-12-12T09:13:24.961Z,2.48
2017-12-12T09:14:24.887Z,2.35
2017-12-12T09:15:24.871Z,2.34
2017-12-12T09:16:24.820Z,2.35
2017-12-12T09:17:24.886Z,2.28
2017-12-12T09:18:24.753Z,2.44
2017-12-12T09:19:24.795Z,2.45
2017-12-12T09:20:24.687Z,2.38
2017-12-12T09:21:24.709Z,2.44
2017-12-12T09:22:24.618Z,2.37
2017-12-12T09:23:24.619Z,2.46
2017-12-12T09:24:24.546Z,2.44
2017-12-12T09:25:24.528Z,2.51
2017-12-12T09:26:24.479Z,2.53
2017-12-12T09:27:24.547Z,2.61
2017-12-12T09:28:24.414Z,2.64
2017-12-12T09:29:24.454Z,2.69
2017-12-12T09:30:24.347Z,2.64
2017-12-12T09:31:24.363Z,2.73
2017-12-12T09:32:24.279Z,2.67
2017-12-12T09:33:24.276Z,2.67
2017-12-12T09:34:24.211Z,2.67
2017-12-12T09:35:24.289Z,2.74
2017-12-12T09:36:24.147Z,2.70
2017-12-12T09:37:24.203Z,2.71
2017-12-12T09:38:24.208Z,2.79
2017-12-12T09:39:24.057Z,2.74
2017-12-12T09:40:24.119Z,2.71
2017-12-12T09:41:23.970Z,2.74
2017-12-12T09:42:24.070Z,2.73
2017-12-12T09:43:23.912Z,2.71
2017-12-12T09:44:23.939Z,2.69
2017-12-12T09:45:23.841Z,2.73
2017-12-12T09:46:23.955Z,2.76
2017-12-12T09:47:23.773Z,2.84
2017-12-12T09:48:23.866Z,2.81
2017-12-12T09:49:23.708Z,2.76
2017-12-12T09:50:23.778Z,2.81
2017-12-12T09:51:23.638Z,2.84
2017-12-12T09:52:23.687Z,2.76
2017-12-12T09:53:23.577Z,2.81
2017-12-12T09:54:23.705Z,2.77
2017-12-12T09:55:23.500Z,2.77
2017-12-12T09:56:23.613Z,2.87
2017-12-12T09:57:23.434Z,2.84
2017-12-12T09:58:23.524Z,2.84
2017-12-12T09:59:23.371Z,2.91
2017-12-12T10:00:23.435Z,2.91
2017-12-12T10:01:23.299Z,2.89
2017-12-12T10:02:23.347Z,2.89
2017-12-12T10:03:23.231Z,2.88
2017-12-12T10:04:23.367Z,2.95
2017-12-12T10:05:23.162Z,2.94
2017-12-12T10:06:23.274Z,2.97
2017-12-12T10:07:23.097Z,2.92
2017-12-12T10:08:23.185Z,2.97
2017-12-12T10:09:23.032Z,2.88
2017-12-12T10:10:23.094Z,2.95
2017-12-12T10:11:22.964Z,2.98
2017-12-12T10:12:23.119Z,2.94
2017-12-12T10:13:22.907Z,3.03
2017-12-12T10:14:23.032Z,3.10
2017-12-12T10:15:22.835Z,3.10
2017-12-12T10:16:22.932Z,3.18
2017-12-12T10:17:22.762Z,3.21
2017-12-12T10:18:22.781Z,3.27
2017-12-12T10:19:22.697Z,3.28
2017-12-12T10:20:22.775Z,3.34
2017-12-12T10:21:22.628Z,3.28
2017-12-12T10:22:22.781Z,3.23
2017-12-12T10:23:22.559Z,3.21
2017-12-12T10:24:22.627Z,3.24
2017-12-12T10:25:22.535Z,3.16
2017-12-12T10:26:22.491Z,3.18
2017-12-12T10:27:22.428Z,3.13
2017-12-12T10:28:22.504Z,3.18
2017-12-12T10:29:22.358Z,3.13
2017-12-12T10:30:22.436Z,3.15
2017-12-12T10:31:22.287Z,3.15
2017-12-12T10:32:22.349Z,3.10
2017-12-12T10:33:22.226Z,3.12
2017-12-12T10:34:22.260Z,3.07
2017-12-12T10:35:22.162Z,3.07
2017-12-12T10:36:22.169Z,3.06
2017-12-12T10:37:22.093Z,3.16
2017-12-12T10:38:22.166Z,3.12
2017-12-12T10:39:22.026Z,3.09
2017-12-12T10:40:22.189Z,3.12
2017-12-12T10:41:21.960Z,3.09
2017-12-12T10:42:22.090Z,3.07
2017-12-12T10:43:21.893Z,3.07
2017-12-12T10:44:22.000Z,3.18
2017-12-12T10:45:21.826Z,3.15
2017-12-12T10:46:21.820Z,3.21
2017-12-12T10:47:21.761Z,3.31
2017-12-12T10:48:21.831Z,3.28
2017-12-12T10:49:21.688Z,3.20
2017-12-12T10:50:21.739Z,3.23
2017-12-12T10:51:21.645Z,3.28
2017-12-12T10:52:21.591Z,3.30
2017-12-12T10:53:21.657Z,3.39
2017-12-12T10:54:21.527Z,3.28
2017-12-12T10:55:21.564Z,3.33
2017-12-12T10:56:21.460Z,3.34
2017-12-12T10:57:21.424Z,3.31
2017-12-12T10:58:21.483Z,3.31
2017-12-12T10:59:21.366Z,3.36
2017-12-12T11:00:21.389Z,3.33
2017-12-12T11:01:21.289Z,3.36
2017-12-12T11:02:21.308Z,3.44
2017-12-12T11:03:21.224Z,3.57
2017-12-12T11:04:21.214Z,3.64
2017-12-12T11:05:21.159Z,3.65
2017-12-12T11:06:21.223Z,3.62
2017-12-12T11:07:21.092Z,3.60
2017-12-12T11:08:21.138Z,3.71
2017-12-12T11:09:21.026Z,3.82
2017-12-12T11:10:21.046Z,3.96
2017-12-12T11:11:20.959Z,3.90
2017-12-12T11:12:20.957Z,3.83
2017-12-12T11:13:20.893Z,3.80
2017-12-12T11:14:20.967Z,3.83
2017-12-12T11:15:20.829Z,3.88
2017-12-12T11:16:20.878Z,3.78
2017-12-12T11:17:20.764Z,3.83
2017-12-12T11:18:20.788Z,3.96
2017-12-12T11:19:20.695Z,3.83
2017-12-12T11:20:20.699Z,4.00
2017-12-12T11:21:20.635Z,4.70
2017-12-12T11:22:20.715Z,4.70
2017-12-12T11:23:20.566Z,4.65
2017-12-12T11:24:20.621Z,4.46
2017-12-12T11:25:20.499Z,4.21
2017-12-12T11:26:20.529Z,4.14
2017-12-12T11:27:20.434Z,4.07
2017-12-12T11:28:20.441Z,3.98
2017-12-12T11:29:20.370Z,3.92
2017-12-12T11:30:20.356Z,3.88
2017-12-12T11:31:20.308Z,3.90
2017-12-12T11:32:20.367Z,3.82
2017-12-12T11:33:20.240Z,3.85
2017-12-12T11:34:20.315Z,3.80
2017-12-12T11:35:20.173Z,3.79
2017-12-12T11:36:20.190Z,3.78
2017-12-12T11:37:20.114Z,3.80
2017-12-12T11:38:20.091Z,3.68
2017-12-12T11:39:20.047Z,3.68
2017-12-12T11:40:20.103Z,3.65
2017-12-12T11:41:19.981Z,3.72
2017-12-12T11:42:20.164Z,3.68
2017-12-12T11:43:19.917Z,3.70
2017-12-12T11:44:19.926Z,3.70
2017-12-12T11:45:19.851Z,3.65
2017-12-12T11:46:19.877Z,3.70
2017-12-12T11:47:19.789Z,3.70
2017-12-12T11:48:19.856Z,3.65
2017-12-12T11:49:19.719Z,3.71
2017-12-12T11:50:19.693Z,3.75
2017-12-12T11:51:19.806Z,3.75
2017-12-12T11:52:19.626Z,3.75
2017-12-12T11:53:20.638Z,3.79
2017-12-12T11:54:19.556Z,3.78
2017-12-12T11:55:19.626Z,3.85
2017-12-12T11:56:19.508Z,3.85
2017-12-12T11:57:19.538Z,3.83
2017-12-12T11:58:19.424Z,3.80
2017-12-12T11:59:19.448Z,3.90
2017-12-12T12:00:19.361Z,3.96
2017-12-12T12:01:19.463Z,3.80
2017-12-12T12:02:19.298Z,3.96
2017-12-12T12:03:19.373Z,4.00
2017-12-12T12:04:19.228Z,3.98
2017-12-12T12:05:19.286Z,4.12
2017-12-12T12:06:19.163Z,4.01
2017-12-12T12:07:19.154Z,4.01
2017-12-12T12:08:19.099Z,4.01
2017-12-12T12:09:19.212Z,4.00
2017-12-12T12:10:19.045Z,3.97
2017-12-12T12:11:19.122Z,3.98
2017-12-12T12:12:18.969Z,3.92
2017-12-12T12:13:19.035Z,3.92
2017-12-12T12:14:18.898Z,3.97
2017-12-12T12:15:18.945Z,3.92
2017-12-12T12:16:18.837Z,3.86
2017-12-12T12:17:18.957Z,3.83
2017-12-12T12:18:18.776Z,3.75
2017-12-12T12:19:18.868Z,3.82
2017-12-12T12:20:18.704Z,3.79
2017-12-12T12:21:18.780Z,3.78
2017-12-12T12:22:18.643Z,3.75
2017-12-12T12:23:18.690Z,3.76
2017-12-12T12:24:18.575Z,3.80
2017-12-12T12:25:18.601Z,3.71
2017-12-12T12:26:18.507Z,3.79
2017-12-12T12:27:18.519Z,3.76
2017-12-12T12:28:18.445Z,3.75
2017-12-12T12:29:18.424Z,3.79
2017-12-12T12:30:18.378Z,3.78
2017-12-12T12:31:18.439Z,3.83
2017-12-12T12:32:18.312Z,3.76
2017-12-12T12:33:18.367Z,3.64
2017-12-12T12:34:18.249Z,3.70
2017-12-12T12:35:18.261Z,3.67
2017-12-12T12:36:18.182Z,3.64
2017-12-12T12:37:18.174Z,3.67
2017-12-12T12:38:18.117Z,3.64
2017-12-12T12:39:18.111Z,3.58
2017-12-12T12:40:18.103Z,3.61
2017-12-12T12:41:18.019Z,3.49
2017-12-12T12:42:18.054Z,3.64
2017-12-12T12:43:17.953Z,3.53
2017-12-12T12:44:18.017Z,3.52
2017-12-12T12:45:17.888Z,3.53
2017-12-12T12:46:17.927Z,3.61
2017-12-12T12:47:17.826Z,3.58
2017-12-12T12:48:17.790Z,3.60
2017-12-12T12:49:17.759Z,3.52
2017-12-12T12:50:17.853Z,3.46
2017-12-12T12:51:17.688Z,3.54
2017-12-12T12:52:17.764Z,3.62
2017-12-12T12:53:17.626Z,3.64
2017-12-12T12:54:17.589Z,3.67
2017-12-12T12:55:17.583Z,3.54
2017-12-12T12:56:17.524Z,3.58
2017-12-12T12:57:17.592Z,3.68
2017-12-12T12:58:17.455Z,3.67
2017-12-12T12:59:17.510Z,3.72
2017-12-12T13:00:17.392Z,3.70
2017-12-12T13:01:17.422Z,3.58
2017-12-12T13:02:17.325Z,3.57
2017-12-12T13:03:17.332Z,3.67
2017-12-12T13:04:17.267Z,3.72
2017-12-12T13:05:17.339Z,3.72
2017-12-12T13:06:17.198Z,3.79
2017-12-12T13:07:17.248Z,3.79
2017-12-12T13:08:17.136Z,3.78
2017-12-12T13:09:17.163Z,3.79
2017-12-12T13:10:17.065Z,3.82
2017-12-12T13:11:17.074Z,3.83
2017-12-12T13:12:17.000Z,3.85
2017-12-12T13:13:16.985Z,3.83
2017-12-12T13:14:16.938Z,3.80
2017-12-12T13:15:16.998Z,3.98
2017-12-12T13:16:16.867Z,4.00
2017-12-12T13:17:16.911Z,3.92
2017-12-12T13:18:16.804Z,3.94